Time;durP1;ratioP1;P1;durP2;ratioP2;P2;SDS_P1;SDS_P2;PMS_P1;PMS_P2;Temp;Humidity;BMP_temperature;BMP_pressure;BME280_temperature;BME280_humidity;BME280_pressure;Samples;Min_cycle;Max_cycle;Signal;HPM_P1;HPM_P2
2023/12/11 00:01:19;;;;;;;12.23;1.88;;;;;;;;;;5049678;28;20041;-66
2023/12/11 00:03:44;;;;;;;9.88;1.70;;;;;;;;;;5049986;28;20021;-67
2023/12/11 00:06:10;;;;;;;9.15;1.50;;;;;;;;;;5048105;28;20051;-67
2023/12/11 00:08:35;;;;;;;11.35;2.40;;;;;;;;;;5048551;28;20033;-66
2023/12/11 00:11:01;;;;;;;9.90;1.65;;;;;;;;;;5049613;28;20036;-67
2023/12/11 00:13:26;;;;;;;8.32;1.52;;;;;;;;;;5049603;28;20041;-67
2023/12/11 00:15:51;;;;;;;12.40;2.08;;;;;;;;;;5049595;28;20041;-67
2023/12/11 00:18:17;;;;;;;11.63;1.70;;;;;;;;;;5049656;28;20037;-67
2023/12/11 00:20:43;;;;;;;10.07;1.52;;;;;;;;;;5050140;28;20098;-66
2023/12/11 00:23:08;;;;;;;10.57;1.85;;;;;;;;;;5049246;28;20037;-67
2023/12/11 00:25:35;;;;;;;9.30;2.20;;;;;;;;;;5050909;28;20039;-66
2023/12/11 00:28:00;;;;;;;7.35;1.95;;;;;;;;;;5052885;28;20063;-67
2023/12/11 00:30:26;;;;;;;12.13;1.58;;;;;;;;;;5053076;28;20048;-67
2023/12/11 00:32:52;;;;;;;7.57;1.50;;;;;;;;;;5053369;28;20047;-67
2023/12/11 00:35:17;;;;;;;14.80;2.08;;;;;;;;;;5053426;28;20025;-66
2023/12/11 00:37:43;;;;;;;5.72;1.30;;;;;;;;;;5052817;28;20091;-66
2023/12/11 00:40:09;;;;;;;13.45;1.80;;;;;;;;;;5053251;28;20041;-66
2023/12/11 00:42:34;;;;;;;6.78;1.52;;;;;;;;;;5052921;28;20052;-66
2023/12/11 00:44:59;;;;;;;15.15;2.58;;;;;;;;;;5050750;28;20045;-67
2023/12/11 00:47:25;;;;;;;6.10;1.27;;;;;;;;;;5052786;28;20032;-67
2023/12/11 00:49:50;;;;;;;10.13;1.70;;;;;;;;;;5053456;28;20048;-67
2023/12/11 00:52:16;;;;;;;7.18;1.42;;;;;;;;;;5052585;28;20063;-66
2023/12/11 00:54:42;;;;;;;9.05;1.38;;;;;;;;;;5051570;28;20037;-68
2023/12/11 00:57:07;;;;;;;14.38;1.50;;;;;;;;;;5052539;28;20119;-67
2023/12/11 00:59:32;;;;;;;12.55;1.40;;;;;;;;;;5052782;28;20045;-67
2023/12/11 01:01:57;;;;;;;7.22;2.08;;;;;;;;;;5052708;28;20460;-67
2023/12/11 01:04:23;;;;;;;9.30;2.25;;;;;;;;;;5053089;28;20482;-67
2023/12/11 01:06:48;;;;;;;5.25;1.10;;;;;;;;;;5052477;28;20517;-66
2023/12/11 01:09:13;;;;;;;19.15;2.28;;;;;;;;;;5048837;28;20095;-67
2023/12/11 01:11:39;;;;;;;10.13;1.92;;;;;;;;;;5052711;28;20037;-66
2023/12/11 01:14:05;;;;;;;8.57;1.45;;;;;;;;;;5046044;28;20045;-66
2023/12/11 01:16:30;;;;;;;8.48;2.30;;;;;;;;;;5052291;28;20044;-67
2023/12/11 01:18:56;;;;;;;7.45;1.27;;;;;;;;;;5052626;28;20029;-66
2023/12/11 01:21:21;;;;;;;11.68;1.67;;;;;;;;;;5052059;28;20106;-67
2023/12/11 01:23:46;;;;;;;9.32;1.42;;;;;;;;;;5052411;28;20033;-67
2023/12/11 01:26:12;;;;;;;8.05;1.40;;;;;;;;;;5051653;28;20087;-66
2023/12/11 01:28:37;;;;;;;7.20;1.92;;;;;;;;;;5045370;28;20053;-66
2023/12/11 01:31:03;;;;;;;9.35;1.67;;;;;;;;;;5051079;28;20102;-66
2023/12/11 01:33:28;;;;;;;13.43;1.80;;;;;;;;;;5051464;28;20040;-66
2023/12/11 01:35:53;;;;;;;14.05;1.80;;;;;;;;;;5051224;28;20033;-67
2023/12/11 01:38:19;;;;;;;15.75;1.80;;;;;;;;;;5048391;28;20044;-66
2023/12/11 01:40:44;;;;;;;8.98;1.88;;;;;;;;;;5052107;28;20590;-67
2023/12/11 01:43:20;;;;;;;9.10;1.85;;;;;;;;;;5051243;28;20064;-67
2023/12/11 01:46:11;;;;;;;11.98;1.52;;;;;;;;;;5035034;28;20423;-67
2023/12/11 01:48:37;;;;;;;9.55;1.45;;;;;;;;;;5046175;28;20083;-66
2023/12/11 01:51:03;;;;;;;13.18;1.90;;;;;;;;;;5050059;28;20550;-67
2023/12/11 01:53:29;;;;;;;16.05;1.48;;;;;;;;;;5050696;28;20078;-66
2023/12/11 01:55:55;;;;;;;9.95;1.77;;;;;;;;;;5049501;28;20064;-66
2023/12/11 01:58:21;;;;;;;9.57;1.50;;;;;;;;;;5033353;28;20045;-66
2023/12/11 02:00:46;;;;;;;14.07;1.98;;;;;;;;;;5050601;28;20043;-67
2023/12/11 02:03:11;;;;;;;12.95;1.48;;;;;;;;;;5051863;28;20389;-67
2023/12/11 02:05:37;;;;;;;12.45;2.50;;;;;;;;;;5051456;28;20029;-66
2023/12/11 02:08:03;;;;;;;9.82;1.40;;;;;;;;;;5050424;28;20068;-67
2023/12/11 02:10:28;;;;;;;11.90;1.60;;;;;;;;;;5051191;28;20064;-68
2023/12/11 02:12:54;;;;;;;6.00;1.45;;;;;;;;;;5050674;28;20074;-66
2023/12/11 02:15:50;;;;;;;10.10;1.85;;;;;;;;;;5050316;28;20290;-66
2023/12/11 02:18:16;;;;;;;5.22;1.45;;;;;;;;;;5040398;28;20049;-67
2023/12/11 02:20:43;;;;;;;10.90;1.70;;;;;;;;;;5049587;28;20091;-66
2023/12/11 02:23:40;;;;;;;5.22;1.20;;;;;;;;;;5047208;28;20131;-66
2023/12/11 02:26:17;;;;;;;16.50;2.28;;;;;;;;;;5041205;28;20057;-67
2023/12/11 02:28:42;;;;;;;10.73;2.42;;;;;;;;;;5049500;28;20429;-66
2023/12/11 02:31:08;;;;;;;10.15;1.58;;;;;;;;;;5050541;28;20128;-66
2023/12/11 02:33:33;;;;;;;9.65;2.03;;;;;;;;;;5051157;28;20484;-67
2023/12/11 02:35:59;;;;;;;8.40;1.45;;;;;;;;;;5050936;28;20029;-67
2023/12/11 02:38:24;;;;;;;6.07;1.25;;;;;;;;;;5051197;28;20107;-66
2023/12/11 02:40:49;;;;;;;10.52;2.25;;;;;;;;;;5050651;28;20060;-67
2023/12/11 02:43:15;;;;;;;7.32;1.83;;;;;;;;;;5050809;28;20033;-67
2023/12/11 02:45:41;;;;;;;10.80;1.20;;;;;;;;;;5051212;28;20053;-66
2023/12/11 02:48:07;;;;;;;7.70;1.20;;;;;;;;;;5049695;28;20143;-66
2023/12/11 02:50:32;;;;;;;12.52;2.05;;;;;;;;;;5049414;28;20135;-67
2023/12/11 02:52:58;;;;;;;10.13;1.13;;;;;;;;;;5048354;28;20088;-66
2023/12/11 02:55:24;;;;;;;15.52;2.10;;;;;;;;;;5050344;28;20476;-66
2023/12/11 02:57:49;;;;;;;12.15;1.60;;;;;;;;;;5050196;28;20044;-66
2023/12/11 03:00:15;;;;;;;7.22;1.38;;;;;;;;;;5050321;28;20048;-66
2023/12/11 03:02:40;;;;;;;9.43;1.67;;;;;;;;;;5050225;28;20037;-66
2023/12/11 03:05:06;;;;;;;13.35;1.92;;;;;;;;;;5050651;28;20037;-66
2023/12/11 03:07:31;;;;;;;9.20;1.35;;;;;;;;;;5050156;28;20384;-66
2023/12/11 03:09:56;;;;;;;8.27;1.75;;;;;;;;;;5050357;28;20078;-66
2023/12/11 03:12:22;;;;;;;5.75;1.70;;;;;;;;;;5048943;28;20037;-66
2023/12/11 03:14:47;;;;;;;12.00;2.00;;;;;;;;;;5050740;28;20496;-66
2023/12/11 03:17:12;;;;;;;6.32;1.25;;;;;;;;;;5042294;28;20354;-66
2023/12/11 03:19:38;;;;;;;13.75;1.55;;;;;;;;;;5050418;28;20443;-66
2023/12/11 03:22:03;;;;;;;12.35;1.40;;;;;;;;;;5050185;28;20040;-66
2023/12/11 03:24:29;;;;;;;13.68;1.42;;;;;;;;;;5050238;28;20094;-66
2023/12/11 03:26:54;;;;;;;15.05;2.15;;;;;;;;;;5049799;28;20025;-66
2023/12/11 03:29:19;;;;;;;8.77;1.40;;;;;;;;;;5048052;28;20056;-66
2023/12/11 03:31:45;;;;;;;10.05;1.45;;;;;;;;;;5049140;28;20508;-66
2023/12/11 03:34:10;;;;;;;4.22;1.35;;;;;;;;;;5050355;28;20531;-66
2023/12/11 03:36:35;;;;;;;3.80;0.88;;;;;;;;;;5049790;28;20631;-66
2023/12/11 03:39:01;;;;;;;6.70;1.20;;;;;;;;;;5050257;28;20056;-66
2023/12/11 03:41:26;;;;;;;8.43;1.50;;;;;;;;;;5049696;28;20037;-65
2023/12/11 03:43:51;;;;;;;5.90;1.00;;;;;;;;;;5050319;28;20032;-66
2023/12/11 03:46:16;;;;;;;6.50;0.85;;;;;;;;;;5049685;28;20021;-66
2023/12/11 03:48:42;;;;;;;9.43;1.95;;;;;;;;;;5049836;28;20033;-66
2023/12/11 03:51:07;;;;;;;8.57;1.42;;;;;;;;;;5050013;28;20032;-66
2023/12/11 03:53:32;;;;;;;7.90;1.02;;;;;;;;;;5050047;28;20465;-66
2023/12/11 03:55:58;;;;;;;6.65;1.52;;;;;;;;;;5049663;28;20078;-66
2023/12/11 03:58:23;;;;;;;4.65;0.70;;;;;;;;;;5049792;28;20107;-66
2023/12/11 04:00:49;;;;;;;6.90;1.38;;;;;;;;;;5052851;28;20108;-66
2023/12/11 04:03:14;;;;;;;3.70;1.25;;;;;;;;;;5053818;28;20061;-66
2023/12/11 04:05:39;;;;;;;7.93;1.25;;;;;;;;;;5053958;28;20094;-66
2023/12/11 04:08:05;;;;;;;8.40;1.20;;;;;;;;;;5053723;28;20431;-65
2023/12/11 04:10:31;;;;;;;4.25;0.95;;;;;;;;;;5052607;28;20040;-66
2023/12/11 04:12:59;;;;;;;7.03;1.25;;;;;;;;;;5053698;28;20044;-66
2023/12/11 04:15:24;;;;;;;4.78;0.93;;;;;;;;;;5053845;28;20033;-66
2023/12/11 04:17:50;;;;;;;6.88;1.27;;;;;;;;;;5053427;28;20056;-67
2023/12/11 04:20:15;;;;;;;4.00;0.70;;;;;;;;;;5053797;28;20044;-66
2023/12/11 04:22:40;;;;;;;6.30;1.00;;;;;;;;;;5053511;28;20053;-66
2023/12/11 04:25:06;;;;;;;4.72;1.02;;;;;;;;;;5053741;28;20063;-66
2023/12/11 04:27:31;;;;;;;4.47;1.00;;;;;;;;;;5048879;28;20036;-66
2023/12/11 04:29:57;;;;;;;10.48;1.10;;;;;;;;;;5053577;28;20028;-66
2023/12/11 04:32:22;;;;;;;6.53;1.40;;;;;;;;;;5053082;28;20071;-66
2023/12/11 04:34:48;;;;;;;5.32;0.88;;;;;;;;;;5053621;28;20404;-66
2023/12/11 04:37:13;;;;;;;13.55;1.45;;;;;;;;;;5053074;28;20081;-66
2023/12/11 04:39:38;;;;;;;5.50;1.15;;;;;;;;;;5053343;28;20061;-66
2023/12/11 04:42:04;;;;;;;9.63;1.48;;;;;;;;;;5053175;28;20044;-67
2023/12/11 04:44:29;;;;;;;4.18;0.88;;;;;;;;;;5053409;28;20062;-66
2023/12/11 04:46:55;;;;;;;4.18;1.15;;;;;;;;;;5053018;28;20098;-65
2023/12/11 04:49:20;;;;;;;3.55;0.98;;;;;;;;;;5053124;28;20048;-65
2023/12/11 04:51:45;;;;;;;4.57;1.13;;;;;;;;;;5052758;28;20032;-67
2023/12/11 04:54:11;;;;;;;5.78;1.20;;;;;;;;;;5052872;28;20037;-66
2023/12/11 04:56:36;;;;;;;7.45;1.20;;;;;;;;;;5052339;28;20067;-66
2023/12/11 04:59:01;;;;;;;5.43;1.20;;;;;;;;;;5052796;28;20044;-66
2023/12/11 05:01:27;;;;;;;5.90;1.05;;;;;;;;;;5052171;28;20028;-66
2023/12/11 05:03:52;;;;;;;6.57;1.08;;;;;;;;;;5050688;28;20091;-67
2023/12/11 05:06:18;;;;;;;4.85;0.93;;;;;;;;;;5052575;28;20056;-66
2023/12/11 05:08:43;;;;;;;7.30;0.88;;;;;;;;;;5052871;28;20025;-66
2023/12/11 05:11:09;;;;;;;4.05;0.95;;;;;;;;;;5051723;28;20067;-66
2023/12/11 05:13:34;;;;;;;3.50;0.80;;;;;;;;;;5050731;28;20075;-66
2023/12/11 05:16:00;;;;;;;3.95;0.50;;;;;;;;;;5052554;28;20112;-66
2023/12/11 05:18:26;;;;;;;5.00;0.75;;;;;;;;;;5051201;28;20044;-66
2023/12/11 05:20:51;;;;;;;3.33;0.95;;;;;;;;;;5052549;28;20025;-66
2023/12/11 05:23:16;;;;;;;3.65;0.90;;;;;;;;;;5052384;28;20035;-67
2023/12/11 05:25:42;;;;;;;3.22;0.90;;;;;;;;;;5052473;28;20074;-66
2023/12/11 05:28:07;;;;;;;5.55;0.98;;;;;;;;;;5051830;28;20411;-67
2023/12/11 05:30:32;;;;;;;7.18;1.77;;;;;;;;;;5051295;28;20550;-67
2023/12/11 05:32:59;;;;;;;4.05;1.42;;;;;;;;;;5050894;28;20396;-66
2023/12/11 05:35:25;;;;;;;4.70;1.05;;;;;;;;;;5052088;28;20090;-67
2023/12/11 05:37:50;;;;;;;2.33;0.60;;;;;;;;;;5052109;28;20044;-67
2023/12/11 05:40:16;;;;;;;0.82;0.52;;;;;;;;;;5050880;28;20117;-67
2023/12/11 05:42:41;;;;;;;1.67;0.50;;;;;;;;;;5051818;28;20033;-66
2023/12/11 05:45:08;;;;;;;2.58;0.63;;;;;;;;;;5050987;28;20499;-66
2023/12/11 05:47:33;;;;;;;3.30;0.90;;;;;;;;;;5051850;28;20090;-67
2023/12/11 05:49:59;;;;;;;3.90;0.60;;;;;;;;;;5052061;28;20025;-67
2023/12/11 05:52:24;;;;;;;2.40;0.95;;;;;;;;;;5050457;28;20461;-65
2023/12/11 05:54:49;;;;;;;5.50;0.98;;;;;;;;;;5050953;28;20416;-67
2023/12/11 05:57:15;;;;;;;3.38;0.80;;;;;;;;;;5043349;28;20029;-66
2023/12/11 05:59:40;;;;;;;5.53;1.15;;;;;;;;;;5050874;28;20119;-66
2023/12/11 06:02:05;;;;;;;6.47;1.05;;;;;;;;;;5051581;28;20035;-66
2023/12/11 06:04:31;;;;;;;3.90;0.88;;;;;;;;;;5050503;28;20040;-66
2023/12/11 06:06:56;;;;;;;3.10;0.82;;;;;;;;;;5051117;28;20029;-66
2023/12/11 06:09:21;;;;;;;5.28;0.70;;;;;;;;;;5051800;28;20072;-66
2023/12/11 06:11:47;;;;;;;2.08;0.70;;;;;;;;;;5051447;28;20036;-66
2023/12/11 06:14:12;;;;;;;4.75;0.90;;;;;;;;;;5051450;28;20044;-66
2023/12/11 06:16:37;;;;;;;2.58;0.77;;;;;;;;;;5051312;28;20040;-66
2023/12/11 06:19:03;;;;;;;2.78;0.43;;;;;;;;;;5051633;28;20092;-66
2023/12/11 06:21:28;;;;;;;8.10;1.17;;;;;;;;;;5051134;28;20514;-66
2023/12/11 06:23:54;;;;;;;6.93;1.00;;;;;;;;;;5050461;28;20520;-66
2023/12/11 06:26:28;;;;;;;4.32;1.15;;;;;;;;;;5051060;28;20162;-66
2023/12/11 06:28:54;;;;;;;2.70;0.70;;;;;;;;;;5048458;28;20119;-66
2023/12/11 06:31:19;;;;;;;3.30;0.93;;;;;;;;;;5050904;28;20124;-66
2023/12/11 06:33:44;;;;;;;4.57;1.00;;;;;;;;;;5050880;28;20036;-66
2023/12/11 06:36:10;;;;;;;4.03;1.15;;;;;;;;;;5050582;28;20045;-66
2023/12/11 06:38:35;;;;;;;4.97;1.35;;;;;;;;;;5049797;28;20080;-66
2023/12/11 06:41:00;;;;;;;6.15;0.90;;;;;;;;;;5051137;28;20043;-66
2023/12/11 06:43:26;;;;;;;2.80;0.82;;;;;;;;;;5050906;28;20056;-66
2023/12/11 06:45:51;;;;;;;5.38;0.95;;;;;;;;;;5050868;28;20027;-66
2023/12/11 06:48:16;;;;;;;7.18;1.50;;;;;;;;;;5050823;28;20700;-67
2023/12/11 06:50:42;;;;;;;3.08;0.77;;;;;;;;;;5050799;28;20396;-66
2023/12/11 06:53:08;;;;;;;2.53;0.73;;;;;;;;;;5050539;28;20032;-65
2023/12/11 06:55:33;;;;;;;1.85;1.00;;;;;;;;;;5051283;28;20037;-66
2023/12/11 06:57:59;;;;;;;4.10;1.05;;;;;;;;;;5049971;28;20043;-67
2023/12/11 07:00:25;;;;;;;6.88;1.10;;;;;;;;;;5050980;28;20112;-65
2023/12/11 07:02:50;;;;;;;8.63;1.15;;;;;;;;;;5050731;28;20044;-66
2023/12/11 07:05:16;;;;;;;4.57;1.15;;;;;;;;;;5042847;28;20049;-67
2023/12/11 07:07:41;;;;;;;4.60;0.88;;;;;;;;;;5048826;28;20056;-66
2023/12/11 07:10:07;;;;;;;4.20;0.80;;;;;;;;;;5049746;28;20053;-66
2023/12/11 07:12:33;;;;;;;8.07;1.02;;;;;;;;;;5048857;28;20037;-66
2023/12/11 07:14:58;;;;;;;8.38;1.35;;;;;;;;;;5050182;28;20465;-66
2023/12/11 07:17:23;;;;;;;4.00;1.00;;;;;;;;;;5050087;28;20032;-66
2023/12/11 07:19:49;;;;;;;4.35;0.90;;;;;;;;;;5050452;28;20036;-66
2023/12/11 07:22:14;;;;;;;4.57;1.42;;;;;;;;;;5050203;28;20052;-66
2023/12/11 07:24:40;;;;;;;3.90;0.80;;;;;;;;;;5050730;28;20048;-65
2023/12/11 07:27:05;;;;;;;7.47;0.85;;;;;;;;;;5049834;28;20043;-66
2023/12/11 07:29:30;;;;;;;4.07;1.05;;;;;;;;;;5050444;28;20076;-66
2023/12/11 07:31:56;;;;;;;6.28;2.00;;;;;;;;;;5050027;28;20103;-66
2023/12/11 07:34:22;;;;;;;4.57;1.10;;;;;;;;;;5049471;28;20045;-66
2023/12/11 07:36:51;;;;;;;4.63;1.05;;;;;;;;;;5050271;28;20098;-66
2023/12/11 07:39:16;;;;;;;2.65;0.85;;;;;;;;;;5050450;28;20032;-66
2023/12/11 07:41:42;;;;;;;7.85;1.13;;;;;;;;;;5049784;28;20391;-67
2023/12/11 07:44:07;;;;;;;5.95;0.95;;;;;;;;;;5050161;28;20029;-66
2023/12/11 07:46:33;;;;;;;7.65;1.30;;;;;;;;;;5050061;28;20574;-66
2023/12/11 07:48:58;;;;;;;7.93;1.00;;;;;;;;;;5049766;28;20442;-66
2023/12/11 07:51:24;;;;;;;8.48;1.83;;;;;;;;;;5049753;28;20500;-66
2023/12/11 07:53:50;;;;;;;7.88;1.30;;;;;;;;;;5050223;28;20045;-66
2023/12/11 07:56:19;;;;;;;4.45;0.70;;;;;;;;;;5049593;28;20047;-66
2023/12/11 07:58:44;;;;;;;5.43;0.93;;;;;;;;;;5049176;28;20029;-66
2023/12/11 08:01:10;;;;;;;4.00;0.80;;;;;;;;;;5049165;28;20040;-66
2023/12/11 08:03:36;;;;;;;5.25;0.88;;;;;;;;;;5039863;28;20033;-67
2023/12/11 08:06:01;;;;;;;2.10;0.65;;;;;;;;;;5049391;28;20384;-66
2023/12/11 08:08:26;;;;;;;7.13;0.85;;;;;;;;;;5049577;28;20036;-67
2023/12/11 08:10:52;;;;;;;2.53;0.75;;;;;;;;;;5049292;28;20056;-67
2023/12/11 08:13:17;;;;;;;1.92;0.85;;;;;;;;;;5053811;28;20021;-66
2023/12/11 08:15:43;;;;;;;5.05;0.70;;;;;;;;;;5050132;28;20036;-66
2023/12/11 08:18:09;;;;;;;3.00;0.80;;;;;;;;;;5049553;28;20495;-67
2023/12/11 08:20:34;;;;;;;4.45;0.50;;;;;;;;;;5049806;28;20032;-66
2023/12/11 08:22:59;;;;;;;2.13;0.52;;;;;;;;;;5049772;28;20476;-66
2023/12/11 08:25:25;;;;;;;6.22;0.95;;;;;;;;;;5049714;28;20041;-66
2023/12/11 08:27:50;;;;;;;4.50;0.80;;;;;;;;;;5048897;28;20120;-66
2023/12/11 08:30:15;;;;;;;4.85;0.68;;;;;;;;;;5048885;28;20040;-66
2023/12/11 08:32:41;;;;;;;5.03;0.80;;;;;;;;;;5046305;28;20451;-65
2023/12/11 08:35:07;;;;;;;3.38;0.80;;;;;;;;;;5049042;28;20116;-66
2023/12/11 08:37:33;;;;;;;6.30;1.05;;;;;;;;;;5048417;28;20036;-67
2023/12/11 08:39:58;;;;;;;3.70;0.90;;;;;;;;;;5049384;28;20051;-66
2023/12/11 08:42:24;;;;;;;3.05;0.60;;;;;;;;;;5049527;28;20045;-67
2023/12/11 08:44:49;;;;;;;3.17;0.73;;;;;;;;;;5049768;28;20120;-67
2023/12/11 08:47:14;;;;;;;3.80;0.80;;;;;;;;;;5051431;28;20045;-67
2023/12/11 08:49:40;;;;;;;2.58;0.65;;;;;;;;;;5051642;28;20041;-67
2023/12/11 08:52:05;;;;;;;5.45;0.82;;;;;;;;;;5052630;28;20033;-67
2023/12/11 08:54:30;;;;;;;4.47;0.60;;;;;;;;;;5047847;28;20451;-66
2023/12/11 08:56:55;;;;;;;2.40;0.85;;;;;;;;;;5052287;28;20036;-66
2023/12/11 08:59:21;;;;;;;3.92;0.68;;;;;;;;;;5052605;28;20040;-67
2023/12/11 09:01:46;;;;;;;4.10;0.60;;;;;;;;;;5044033;28;20045;-67
2023/12/11 09:04:11;;;;;;;2.25;0.70;;;;;;;;;;5052920;28;20025;-67
2023/12/11 09:06:37;;;;;;;3.03;0.77;;;;;;;;;;5051820;28;20075;-66
2023/12/11 09:09:02;;;;;;;6.38;0.80;;;;;;;;;;5048036;28;20397;-66
2023/12/11 09:11:28;;;;;;;4.35;0.80;;;;;;;;;;5052427;28;20032;-67
2023/12/11 09:13:53;;;;;;;2.75;0.57;;;;;;;;;;5050103;28;20097;-67
2023/12/11 09:16:19;;;;;;;3.38;0.52;;;;;;;;;;5051064;28;20053;-67
2023/12/11 09:18:44;;;;;;;4.03;0.68;;;;;;;;;;5051906;28;20029;-67
2023/12/11 09:21:09;;;;;;;5.00;0.80;;;;;;;;;;5052485;28;20029;-67
2023/12/11 09:23:35;;;;;;;3.92;1.20;;;;;;;;;;5044163;28;20154;-67
2023/12/11 09:26:00;;;;;;;7.07;0.70;;;;;;;;;;5046898;28;20461;-67
2023/12/11 09:28:25;;;;;;;5.28;0.60;;;;;;;;;;5047158;28;20472;-67
2023/12/11 09:30:51;;;;;;;2.17;0.60;;;;;;;;;;5050378;28;20609;-66
2023/12/11 09:33:17;;;;;;;6.78;1.38;;;;;;;;;;5050817;28;20064;-66
2023/12/11 09:35:42;;;;;;;6.00;0.65;;;;;;;;;;5050075;28;20063;-67
2023/12/11 09:38:08;;;;;;;4.88;0.70;;;;;;;;;;5049179;28;20052;-66
2023/12/11 09:40:35;;;;;;;3.45;1.05;;;;;;;;;;5049924;28;20032;-66
2023/12/11 09:43:02;;;;;;;2.63;0.75;;;;;;;;;;5047375;28;20061;-66
2023/12/11 09:45:28;;;;;;;7.70;0.98;;;;;;;;;;5045870;28;20091;-66
2023/12/11 09:47:53;;;;;;;4.10;0.85;;;;;;;;;;5049630;28;20489;-66
2023/12/11 09:50:19;;;;;;;3.72;0.75;;;;;;;;;;5050420;28;20041;-66
2023/12/11 09:52:44;;;;;;;5.15;0.70;;;;;;;;;;5050145;28;20120;-67
2023/12/11 09:55:10;;;;;;;4.00;0.85;;;;;;;;;;5051755;28;20037;-67
2023/12/11 09:57:40;;;;;;;3.53;0.70;;;;;;;;;;5024299;28;20538;-66
2023/12/11 10:00:08;;;;;;;2.75;0.80;;;;;;;;;;5034792;28;20499;-66
2023/12/11 10:02:33;;;;;;;2.72;0.88;;;;;;;;;;5047961;28;20492;-68
2023/12/11 10:05:08;;;;;;;2.63;0.95;;;;;;;;;;5046700;28;20067;-68
2023/12/11 10:07:35;;;;;;;5.05;0.82;;;;;;;;;;5049091;28;20090;-67
2023/12/11 10:10:20;;;;;;;3.45;0.63;;;;;;;;;;5048913;28;20029;-68
2023/12/11 10:12:46;;;;;;;2.85;0.93;;;;;;;;;;5048220;28;20071;-68
2023/12/11 10:15:18;;;;;;;3.65;1.08;;;;;;;;;;5048429;28;20472;-68
2023/12/11 10:17:43;;;;;;;5.07;1.05;;;;;;;;;;5050055;28;20044;-67
2023/12/11 10:20:16;;;;;;;4.60;1.08;;;;;;;;;;5030581;28;20507;-67
2023/12/11 10:22:41;;;;;;;6.38;0.70;;;;;;;;;;5039884;28;20045;-68
2023/12/11 10:25:07;;;;;;;1.90;0.75;;;;;;;;;;5050358;28;20634;-67
2023/12/11 10:27:32;;;;;;;1.00;0.55;;;;;;;;;;5049803;28;20400;-68
2023/12/11 10:30:13;;;;;;;1.08;0.40;;;;;;;;;;5050453;28;20033;-67
2023/12/11 10:32:39;;;;;;;5.20;0.80;;;;;;;;;;5048172;28;20115;-68
2023/12/11 10:35:05;;;;;;;5.38;0.85;;;;;;;;;;5049772;28;20032;-67
2023/12/11 10:37:31;;;;;;;4.40;0.68;;;;;;;;;;5049201;28;20029;-68
2023/12/11 10:39:57;;;;;;;5.25;1.10;;;;;;;;;;5047866;28;20036;-67
2023/12/11 10:42:23;;;;;;;3.83;0.50;;;;;;;;;;5046806;28;20041;-67
2023/12/11 10:44:50;;;;;;;1.98;0.60;;;;;;;;;;5049388;28;20049;-67
2023/12/11 10:47:16;;;;;;;6.97;0.95;;;;;;;;;;5049040;28;20622;-68
2023/12/11 10:49:42;;;;;;;1.90;0.75;;;;;;;;;;5050310;28;20087;-67
2023/12/11 10:52:07;;;;;;;3.53;0.60;;;;;;;;;;5050333;28;20090;-68
2023/12/11 10:54:35;;;;;;;2.05;0.60;;;;;;;;;;5050419;28;20104;-67
2023/12/11 10:57:03;;;;;;;5.32;1.08;;;;;;;;;;5050054;28;20626;-67
2023/12/11 10:59:31;;;;;;;5.18;0.60;;;;;;;;;;5049022;28;20517;-68
2023/12/11 11:01:57;;;;;;;2.25;0.70;;;;;;;;;;5050367;28;20041;-67
2023/12/11 11:04:23;;;;;;;6.40;0.98;;;;;;;;;;5048926;28;20649;-68
2023/12/11 11:07:34;;;;;;;3.08;0.57;;;;;;;;;;5049113;28;20072;-68
2023/12/11 11:10:06;;;;;;;2.22;0.68;;;;;;;;;;5003637;28;20088;-67
2023/12/11 11:13:05;;;;;;;3.90;0.80;;;;;;;;;;5042792;28;20630;-67
2023/12/11 11:15:30;;;;;;;2.13;0.60;;;;;;;;;;5049058;28;20040;-67
2023/12/11 11:18:06;;;;;;;4.38;1.10;;;;;;;;;;5048746;28;20040;-67
2023/12/11 11:20:33;;;;;;;3.92;0.80;;;;;;;;;;5048893;28;20116;-67
2023/12/11 11:23:17;;;;;;;5.20;0.73;;;;;;;;;;5048719;28;20036;-68
2023/12/11 11:25:50;;;;;;;4.40;0.68;;;;;;;;;;5049392;28;20115;-68
2023/12/11 11:28:38;;;;;;;11.00;1.15;;;;;;;;;;5047974;28;20052;-68
2023/12/11 11:31:10;;;;;;;4.25;0.90;;;;;;;;;;5049254;28;20048;-68
2023/12/11 11:33:55;;;;;;;4.07;0.80;;;;;;;;;;5049258;28;20543;-68
2023/12/11 11:36:21;;;;;;;2.00;0.70;;;;;;;;;;5045439;28;20108;-68
2023/12/11 11:39:01;;;;;;;4.90;0.90;;;;;;;;;;5048366;28;20086;-67
2023/12/11 11:41:29;;;;;;;11.60;1.17;;;;;;;;;;5046168;28;20037;-68
2023/12/11 11:43:59;;;;;;;4.72;1.23;;;;;;;;;;5052006;28;20036;-68
2023/12/11 11:46:25;;;;;;;5.30;0.90;;;;;;;;;;5049741;28;20097;-67
2023/12/11 11:48:51;;;;;;;4.88;0.95;;;;;;;;;;5049514;28;20052;-68
2023/12/11 11:51:17;;;;;;;13.70;1.38;;;;;;;;;;5057452;28;20060;-68
2023/12/11 11:53:43;;;;;;;3.97;0.70;;;;;;;;;;5053856;28;20121;-68
2023/12/11 11:56:09;;;;;;;6.80;0.73;;;;;;;;;;5046148;28;20104;-68
2023/12/11 11:58:35;;;;;;;6.57;1.00;;;;;;;;;;5052794;28;20560;-68
2023/12/11 12:01:04;;;;;;;7.55;1.10;;;;;;;;;;5056223;28;20063;-68
2023/12/11 12:03:47;;;;;;;7.03;1.05;;;;;;;;;;5055536;28;20041;-68
2023/12/11 12:06:13;;;;;;;5.90;1.03;;;;;;;;;;5049273;28;20056;-68
2023/12/11 12:08:42;;;;;;;7.47;1.13;;;;;;;;;;5047011;28;20776;-68
2023/12/11 12:11:07;;;;;;;11.63;1.08;;;;;;;;;;5040548;28;20592;-68
2023/12/11 12:13:34;;;;;;;4.47;1.50;;;;;;;;;;5050799;28;20037;-68
2023/12/11 12:15:59;;;;;;;6.75;0.90;;;;;;;;;;5049394;28;20064;-68
2023/12/11 12:18:24;;;;;;;6.78;1.25;;;;;;;;;;5051930;28;20087;-68
2023/12/11 12:21:05;;;;;;;12.45;1.00;;;;;;;;;;5049021;28;20052;-68
2023/12/11 12:23:31;;;;;;;4.45;0.93;;;;;;;;;;5056418;28;20032;-68
2023/12/11 12:25:59;;;;;;;9.90;1.73;;;;;;;;;;5054875;28;20043;-68
2023/12/11 12:28:24;;;;;;;7.78;1.77;;;;;;;;;;5047288;28;20033;-67
2023/12/11 12:30:50;;;;;;;8.27;1.00;;;;;;;;;;5052742;28;20562;-68
2023/12/11 12:33:18;;;;;;;7.25;1.02;;;;;;;;;;5051442;28;20049;-68
2023/12/11 12:35:44;;;;;;;5.28;1.65;;;;;;;;;;5052424;28;20029;-67
2023/12/11 12:38:10;;;;;;;4.57;1.15;;;;;;;;;;5052994;28;20076;-67
2023/12/11 12:40:36;;;;;;;4.43;1.25;;;;;;;;;;5052714;28;20063;-68
2023/12/11 12:43:09;;;;;;;5.53;1.00;;;;;;;;;;5051735;28;20032;-67
2023/12/11 12:45:35;;;;;;;5.55;1.30;;;;;;;;;;5053375;28;20066;-67
2023/12/11 12:48:00;;;;;;;5.70;1.20;;;;;;;;;;5051212;28;20052;-67
2023/12/11 12:50:27;;;;;;;4.95;1.48;;;;;;;;;;5052948;28;20380;-67
2023/12/11 12:53:03;;;;;;;7.18;1.45;;;;;;;;;;5047650;28;20945;-68
2023/12/11 12:55:29;;;;;;;9.50;1.20;;;;;;;;;;5052097;28;20129;-67
2023/12/11 12:57:57;;;;;;;7.75;1.00;;;;;;;;;;5042710;28;20112;-68
2023/12/11 13:00:22;;;;;;;6.63;1.48;;;;;;;;;;5046115;28;20047;-67
2023/12/11 13:02:48;;;;;;;5.28;1.05;;;;;;;;;;5048359;28;20029;-67
2023/12/11 13:05:14;;;;;;;3.22;1.20;;;;;;;;;;5052526;28;20072;-68
2023/12/11 13:07:40;;;;;;;10.32;1.02;;;;;;;;;;5047782;28;20033;-68
2023/12/11 13:10:10;;;;;;;9.88;1.33;;;;;;;;;;5048223;28;20037;-67
2023/12/11 13:12:35;;;;;;;6.97;1.42;;;;;;;;;;5048513;28;20037;-67
2023/12/11 13:15:01;;;;;;;7.15;1.30;;;;;;;;;;5048826;28;20102;-67
2023/12/11 13:17:26;;;;;;;3.75;0.90;;;;;;;;;;5051478;28;20037;-67
2023/12/11 13:19:51;;;;;;;4.75;1.08;;;;;;;;;;5049048;28;20035;-67
2023/12/11 13:22:17;;;;;;;6.63;1.40;;;;;;;;;;5048733;28;20099;-67
2023/12/11 13:24:42;;;;;;;6.00;1.67;;;;;;;;;;5045834;28;20828;-67
2023/12/11 13:27:07;;;;;;;5.00;0.93;;;;;;;;;;5044962;28;20030;-67
2023/12/11 13:29:33;;;;;;;10.30;1.23;;;;;;;;;;5056845;28;20051;-67
2023/12/11 13:31:59;;;;;;;7.25;1.08;;;;;;;;;;5051151;28;20045;-67
2023/12/11 13:34:25;;;;;;;8.70;1.30;;;;;;;;;;5051714;28;20447;-67
2023/12/11 13:36:50;;;;;;;8.48;1.02;;;;;;;;;;5045038;28;20046;-68
2023/12/11 13:39:16;;;;;;;8.32;1.20;;;;;;;;;;5047191;28;20072;-67
2023/12/11 13:41:42;;;;;;;4.13;1.08;;;;;;;;;;5056968;28;20032;-67
2023/12/11 13:44:07;;;;;;;6.10;1.02;;;;;;;;;;5051778;28;20117;-67
2023/12/11 13:46:32;;;;;;;6.70;1.60;;;;;;;;;;5050630;28;20493;-67
2023/12/11 13:48:58;;;;;;;8.30;1.20;;;;;;;;;;5051741;28;20108;-68
2023/12/11 13:51:23;;;;;;;5.78;1.00;;;;;;;;;;5051245;28;20123;-67
2023/12/11 13:53:49;;;;;;;6.22;1.00;;;;;;;;;;5051020;28;20037;-67
2023/12/11 13:56:15;;;;;;;6.32;1.13;;;;;;;;;;5051101;28;20037;-67
2023/12/11 13:58:40;;;;;;;8.15;1.40;;;;;;;;;;5050833;28;20063;-67
2023/12/11 14:01:05;;;;;;;4.40;0.98;;;;;;;;;;5048547;28;20049;-67
2023/12/11 14:03:31;;;;;;;4.75;1.23;;;;;;;;;;5051359;28;20029;-68
2023/12/11 14:05:57;;;;;;;8.38;1.30;;;;;;;;;;5048390;28;20040;-68
2023/12/11 14:08:22;;;;;;;3.85;0.90;;;;;;;;;;5047017;28;20377;-67
2023/12/11 14:10:48;;;;;;;7.00;1.35;;;;;;;;;;5046699;28;20361;-67
2023/12/11 14:13:14;;;;;;;5.38;1.92;;;;;;;;;;5050983;28;20065;-67
2023/12/11 14:15:44;;;;;;;11.65;1.63;;;;;;;;;;5050962;28;20040;-66
2023/12/11 14:18:10;;;;;;;8.07;1.58;;;;;;;;;;5045510;28;20086;-67
2023/12/11 14:20:36;;;;;;;9.80;1.83;;;;;;;;;;5047894;28;20492;-67
2023/12/11 14:23:01;;;;;;;7.80;1.50;;;;;;;;;;5050741;28;20048;-67
2023/12/11 14:25:26;;;;;;;9.40;1.50;;;;;;;;;;5051230;28;20747;-67
2023/12/11 14:27:52;;;;;;;3.78;0.90;;;;;;;;;;5053969;28;20108;-68
2023/12/11 14:30:19;;;;;;;5.85;1.45;;;;;;;;;;5059003;28;20192;-67
2023/12/11 14:32:45;;;;;;;13.00;1.98;;;;;;;;;;5049370;28;20029;-66
2023/12/11 14:35:10;;;;;;;12.30;1.98;;;;;;;;;;5050190;28;20041;-67
2023/12/11 14:37:35;;;;;;;15.43;2.20;;;;;;;;;;5052620;28;20055;-67